Time;durP1;ratioP1;P1;durP2;ratioP2;P2;SDS_P1;SDS_P2;PMS_P1;PMS_P2;Temp;Humidity;BMP_temperature;BMP_pressure;BME280_temperature;BME280_humidity;BME280_pressure;Samples;Min_cycle;Max_cycle;Signal;HPM_P1;HPM_P2
2022/10/30 00:01:22;;;;;;;10.35;8.88;;;;;;;9.55;69.03;95685.72;5136126;27;20198;-69
2022/10/30 00:03:48;;;;;;;9.90;8.75;;;;;;;9.52;69.28;95683.66;5136032;27;20202;-69
2022/10/30 00:06:17;;;;;;;9.98;9.07;;;;;;;9.50;69.09;95683.97;5136931;27;20182;-68
2022/10/30 00:08:43;;;;;;;10.82;9.77;;;;;;;9.49;69.28;95676.03;5118560;27;20199;-68
2022/10/30 00:11:12;;;;;;;9.25;8.35;;;;;;;9.47;69.01;95673.59;5136757;27;20537;-69
2022/10/30 00:13:39;;;;;;;10.20;9.30;;;;;;;9.48;69.05;95680.75;5136073;27;20287;-68
2022/10/30 00:16:08;;;;;;;12.57;9.32;;;;;;;9.47;69.30;95679.09;5135776;27;20611;-68
2022/10/30 00:18:35;;;;;;;11.50;9.32;;;;;;;9.48;69.12;95683.50;5135650;27;20542;-68
2022/10/30 00:21:05;;;;;;;9.82;8.93;;;;;;;9.44;69.03;95696.31;5135051;27;20183;-68
2022/10/30 00:23:34;;;;;;;10.27;9.32;;;;;;;9.41;69.48;95691.47;5135516;27;20191;-69
2022/10/30 00:26:03;;;;;;;10.55;9.45;;;;;;;9.36;69.35;95686.13;5136740;27;20206;-69
2022/10/30 00:28:30;;;;;;;10.13;9.13;;;;;;;9.32;69.25;95690.69;5135647;27;20191;-69
2022/10/30 00:30:59;;;;;;;9.85;8.95;;;;;;;9.35;69.77;95696.31;5135569;27;20191;-69
2022/10/30 00:33:26;;;;;;;10.02;9.02;;;;;;;9.36;69.68;95678.66;5135494;27;20239;-68
2022/10/30 00:35:52;;;;;;;9.32;8.52;;;;;;;9.32;69.70;95679.66;5135697;27;20214;-69
2022/10/30 00:38:19;;;;;;;10.10;8.95;;;;;;;9.31;69.65;95687.13;5135541;27;20227;-68
2022/10/30 00:40:47;;;;;;;11.05;9.13;;;;;;;9.33;69.86;95682.09;5135540;27;20199;-68
2022/10/30 00:43:30;;;;;;;10.45;9.55;;;;;;;9.29;69.62;95686.63;5135937;27;20187;-68
2022/10/30 00:45:59;;;;;;;10.77;9.27;;;;;;;9.30;69.32;95685.50;5136091;27;20198;-68
2022/10/30 00:48:26;;;;;;;10.48;9.55;;;;;;;9.29;69.31;95680.31;5136006;27;20482;-68
2022/10/30 00:50:53;;;;;;;10.80;9.73;;;;;;;9.27;69.40;95682.59;5136506;27;20259;-68
2022/10/30 00:53:21;;;;;;;10.95;9.95;;;;;;;9.28;69.16;95685.03;5136192;27;20207;-68
2022/10/30 00:55:51;;;;;;;10.73;9.63;;;;;;;9.24;69.15;95686.81;5135997;27;20194;-68
2022/10/30 00:58:20;;;;;;;10.15;8.95;;;;;;;9.21;69.20;95681.97;5135414;28;20210;-69
2022/10/30 01:00:51;;;;;;;10.23;9.15;;;;;;;9.18;69.33;95673.56;5135467;28;20187;-68
2022/10/30 01:03:19;;;;;;;11.30;10.20;;;;;;;9.15;69.48;95675.03;5136072;28;20191;-68
2022/10/30 01:05:49;;;;;;;11.57;10.40;;;;;;;9.09;69.47;95671.66;5136172;27;20190;-68
2022/10/30 01:08:16;;;;;;;10.48;9.48;;;;;;;9.05;69.38;95667.94;5136122;27;20187;-68
2022/10/30 01:10:43;;;;;;;11.93;10.73;;;;;;;9.03;69.15;95667.44;5135451;28;20194;-68
2022/10/30 01:13:11;;;;;;;11.32;10.23;;;;;;;8.99;69.41;95665.69;5135735;27;20209;-68
2022/10/30 01:15:41;;;;;;;11.70;10.50;;;;;;;9.00;69.46;95656.28;5134862;28;20195;-68
2022/10/30 01:18:20;;;;;;;11.20;9.93;;;;;;;8.93;69.53;95659.53;5135170;28;20199;-68
2022/10/30 01:21:17;;;;;;;11.57;9.85;;;;;;;8.92;69.79;95649.69;5136057;28;20187;-68
2022/10/30 01:23:53;;;;;;;10.48;9.40;;;;;;;8.94;69.72;95641.94;5132282;28;20215;-69
2022/10/30 01:26:28;;;;;;;10.57;9.05;;;;;;;8.96;70.08;95645.13;5135291;28;20255;-69
2022/10/30 01:29:07;;;;;;;11.05;9.85;;;;;;;8.98;70.00;95651.13;5135928;28;20183;-68
2022/10/30 01:31:46;;;;;;;10.57;9.52;;;;;;;8.94;69.68;95647.44;5135017;28;20195;-68
2022/10/30 01:34:18;;;;;;;10.70;9.57;;;;;;;8.94;69.74;95638.38;5138318;27;20218;-68
2022/10/30 01:36:50;;;;;;;10.95;9.93;;;;;;;8.90;69.65;95644.53;5139030;27;20194;-68
2022/10/30 01:39:20;;;;;;;9.57;8.68;;;;;;;8.89;69.50;95642.09;5138412;27;20233;-68
2022/10/30 01:41:47;;;;;;;9.95;8.95;;;;;;;8.86;69.81;95640.81;5139481;27;20214;-68
2022/10/30 01:44:19;;;;;;;9.90;9.00;;;;;;;8.83;69.89;95635.16;5139764;27;20191;-68
2022/10/30 01:46:56;;;;;;;9.35;8.45;;;;;;;8.78;69.96;95640.81;5139704;27;20198;-68
2022/10/30 01:49:38;;;;;;;8.98;8.07;;;;;;;8.72;70.22;95634.72;5139645;27;20182;-68
2022/10/30 01:52:13;;;;;;;9.05;8.15;;;;;;;8.74;70.91;95639.88;5139637;27;20183;-68
2022/10/30 01:54:46;;;;;;;8.23;7.43;;;;;;;8.77;70.77;95637.28;5139085;27;20540;-68
2022/10/30 01:57:20;;;;;;;9.55;8.05;;;;;;;8.79;70.99;95639.72;5138537;27;20191;-68
2022/10/30 01:59:53;;;;;;;8.73;7.82;;;;;;;8.83;71.07;95640.66;5138467;27;20226;-68
2022/10/30 02:02:19;;;;;;;9.20;8.40;;;;;;;8.84;70.63;95639.53;5139323;27;20187;-68
2022/10/30 02:04:46;;;;;;;9.32;8.50;;;;;;;8.84;70.25;95634.81;5139355;27;20179;-68
2022/10/30 02:07:13;;;;;;;9.35;8.38;;;;;;;8.84;70.07;95636.78;5139298;27;20202;-68
2022/10/30 02:09:40;;;;;;;8.50;7.75;;;;;;;8.74;69.81;95637.91;5139338;27;20244;-68
2022/10/30 02:12:07;;;;;;;8.30;7.50;;;;;;;8.72;70.32;95631.97;5139217;27;20195;-69
2022/10/30 02:14:37;;;;;;;9.75;7.78;;;;;;;8.74;70.44;95639.88;5138107;27;20218;-68
2022/10/30 02:17:06;;;;;;;8.38;7.57;;;;;;;8.75;70.32;95635.97;5138834;27;20190;-68
2022/10/30 02:19:34;;;;;;;8.65;7.85;;;;;;;8.74;70.13;95628.88;5138108;27;20191;-68
2022/10/30 02:22:02;;;;;;;8.70;7.88;;;;;;;8.72;69.92;95622.91;5138739;27;20632;-68
2022/10/30 02:24:29;;;;;;;8.07;7.47;;;;;;;8.70;70.21;95620.47;5138959;27;20183;-69
2022/10/30 02:26:55;;;;;;;8.13;7.45;;;;;;;8.64;69.90;95624.50;5138087;27;20194;-69
2022/10/30 02:29:22;;;;;;;8.88;7.80;;;;;;;8.59;70.14;95625.50;5137898;27;20192;-69
2022/10/30 02:31:49;;;;;;;8.52;7.72;;;;;;;8.52;70.19;95618.88;5138807;27;20183;-69
2022/10/30 02:34:16;;;;;;;8.70;7.75;;;;;;;8.54;70.90;95625.69;5138238;27;20207;-69
2022/10/30 02:36:43;;;;;;;8.60;7.90;;;;;;;8.59;70.93;95620.00;5138445;27;20203;-69
2022/10/30 02:39:11;;;;;;;9.20;8.30;;;;;;;8.58;70.71;95615.66;5138558;27;20670;-69
2022/10/30 02:41:38;;;;;;;7.82;7.13;;;;;;;8.59;70.49;95625.50;5138309;27;20194;-69
2022/10/30 02:44:08;;;;;;;8.80;7.32;;;;;;;8.52;70.27;95622.44;5137365;27;20191;-69
2022/10/30 02:46:35;;;;;;;8.35;7.65;;;;;;;8.51;70.45;95622.78;5137855;27;20191;-69
2022/10/30 02:49:02;;;;;;;8.15;7.38;;;;;;;8.52;70.67;95627.13;5138428;27;20191;-69
2022/10/30 02:51:31;;;;;;;8.40;7.60;;;;;;;8.50;70.28;95630.22;5137567;27;20210;-68
2022/10/30 02:53:58;;;;;;;8.32;7.53;;;;;;;8.50;70.52;95629.41;5138388;27;20195;-68
2022/10/30 02:56:27;;;;;;;9.45;7.50;;;;;;;8.45;70.65;95630.38;5137545;27;20194;-69
2022/10/30 02:58:55;;;;;;;8.48;7.72;;;;;;;8.47;70.89;95630.88;5138067;27;20195;-68
2022/10/30 03:01:21;;;;;;;8.35;7.55;;;;;;;8.45;70.65;95635.88;5138147;27;20194;-69
2022/10/30 03:03:48;;;;;;;8.48;7.70;;;;;;;8.43;71.04;95632.66;5137946;27;20183;-68
2022/10/30 03:06:16;;;;;;;7.85;7.15;;;;;;;8.45;70.98;95641.38;5138151;27;20179;-69
2022/10/30 03:08:43;;;;;;;8.30;7.50;;;;;;;8.48;70.82;95637.16;5137478;27;20199;-68
2022/10/30 03:11:12;;;;;;;8.18;7.38;;;;;;;8.46;70.64;95633.94;5137214;27;20244;-68
2022/10/30 03:13:40;;;;;;;8.30;7.50;;;;;;;8.41;70.71;95643.97;5138278;27;20188;-68
2022/10/30 03:16:09;;;;;;;8.27;7.43;;;;;;;8.40;70.97;95638.81;5136968;27;20235;-69
2022/10/30 03:18:36;;;;;;;7.85;7.15;;;;;;;8.43;71.21;95646.41;5137194;27;20198;-69
2022/10/30 03:21:05;;;;;;;8.05;7.28;;;;;;;8.45;70.86;95641.38;5136668;27;20191;-69
2022/10/30 03:23:32;;;;;;;8.35;7.50;;;;;;;8.36;70.83;95646.84;5137800;27;20187;-69
2022/10/30 03:25:59;;;;;;;8.65;7.85;;;;;;;8.36;70.70;95644.09;5137695;27;20175;-69
2022/10/30 03:28:27;;;;;;;10.27;8.73;;;;;;;8.35;70.85;95647.16;5137376;27;20179;-69
2022/10/30 03:31:00;;;;;;;8.45;7.72;;;;;;;8.32;70.79;95645.88;5137581;27;20219;-69
2022/10/30 03:33:27;;;;;;;8.05;7.35;;;;;;;8.32;70.59;95636.84;5136610;27;20203;-70
2022/10/30 03:35:54;;;;;;;8.93;8.10;;;;;;;8.26;70.81;95633.44;5137501;27;20210;-69
2022/10/30 03:38:20;;;;;;;8.35;7.55;;;;;;;8.28;71.04;95638.59;5137284;27;20246;-70
2022/10/30 03:40:47;;;;;;;9.07;8.20;;;;;;;8.25;71.14;95648.31;5136428;27;20595;-69
2022/10/30 03:43:14;;;;;;;8.52;7.82;;;;;;;8.19;70.72;95641.34;5137369;27;20187;-69
2022/10/30 03:45:41;;;;;;;8.82;7.82;;;;;;;8.16;70.52;95642.81;5136174;27;20198;-69
2022/10/30 03:48:09;;;;;;;8.07;7.40;;;;;;;8.12;70.20;95635.53;5135843;27;20206;-69
2022/10/30 03:50:35;;;;;;;8.25;7.45;;;;;;;8.06;70.62;95640.41;5136866;27;20603;-69
2022/10/30 03:53:02;;;;;;;9.02;8.32;;;;;;;7.97;70.99;95634.09;5136018;27;20195;-69
2022/10/30 03:55:29;;;;;;;8.77;8.05;;;;;;;8.02;71.54;95639.41;5135602;27;20299;-68
2022/10/30 03:57:56;;;;;;;8.55;7.78;;;;;;;8.10;71.84;95638.63;5136483;27;20187;-69
2022/10/30 04:00:22;;;;;;;8.20;7.43;;;;;;;8.14;71.58;95636.84;5136198;27;20199;-69
2022/10/30 04:02:51;;;;;;;9.05;8.15;;;;;;;8.16;71.79;95631.00;5136974;27;20602;-69
2022/10/30 04:05:21;;;;;;;8.18;7.47;;;;;;;8.19;71.59;95622.94;5136007;27;20202;-69
2022/10/30 04:07:48;;;;;;;8.32;7.53;;;;;;;8.18;71.12;95621.31;5136337;27;20210;-68
2022/10/30 04:10:15;;;;;;;8.20;7.45;;;;;;;8.16;71.25;95625.53;5136100;27;20210;-69
2022/10/30 04:13:02;;;;;;;8.57;7.82;;;;;;;8.20;71.33;95630.03;5136754;27;20210;-69
2022/10/30 04:15:29;;;;;;;8.60;7.80;;;;;;;8.21;71.20;95625.38;5135942;27;20650;-68
2022/10/30 04:18:16;;;;;;;8.93;8.05;;;;;;;8.12;70.52;95624.56;5136205;27;20318;-68
2022/10/30 04:20:45;;;;;;;7.75;7.03;;;;;;;8.07;70.94;95624.72;5135495;27;20194;-69
2022/10/30 04:23:15;;;;;;;8.52;7.70;;;;;;;8.04;70.59;95631.66;5135652;27;20219;-69
2022/10/30 04:25:42;;;;;;;8.82;8.00;;;;;;;8.00;70.47;95624.41;5136562;27;20236;-69
2022/10/30 04:28:10;;;;;;;9.10;8.27;;;;;;;7.93;70.53;95620.19;5135920;27;20195;-69
2022/10/30 04:30:38;;;;;;;8.95;8.13;;;;;;;7.90;70.96;95618.09;5136554;27;20191;-69
2022/10/30 04:33:06;;;;;;;8.90;8.10;;;;;;;7.93;71.18;95622.94;5135730;27;20211;-69
2022/10/30 04:35:35;;;;;;;9.38;8.48;;;;;;;7.96;70.99;95627.78;5136738;27;20214;-68
2022/10/30 04:38:05;;;;;;;9.80;8.80;;;;;;;8.00;71.14;95624.41;5135659;27;20258;-68
2022/10/30 04:40:33;;;;;;;9.82;8.85;;;;;;;8.05;71.25;95627.78;5136263;27;20183;-70
2022/10/30 04:43:01;;;;;;;8.85;8.10;;;;;;;8.07;71.13;95625.53;5136371;27;20182;-69
2022/10/30 04:45:28;;;;;;;9.88;8.88;;;;;;;8.03;71.05;95626.50;5136452;27;20213;-69
2022/10/30 04:48:02;;;;;;;8.95;8.05;;;;;;;8.00;70.91;95625.19;5135153;27;20201;-69
2022/10/30 04:50:29;;;;;;;11.20;9.15;;;;;;;7.97;71.14;95632.16;5135542;27;20198;-69
2022/10/30 04:52:59;;;;;;;9.90;9.00;;;;;;;7.95;71.50;95631.69;5135383;27;20205;-69
2022/10/30 04:55:28;;;;;;;10.10;8.77;;;;;;;7.99;71.21;95640.09;5136180;27;20207;-69
2022/10/30 04:57:56;;;;;;;10.30;9.30;;;;;;;7.98;71.05;95638.44;5135371;28;20203;-69
2022/10/30 05:00:23;;;;;;;10.93;9.77;;;;;;;7.96;70.76;95636.03;5136137;28;20187;-69
2022/10/30 05:02:52;;;;;;;11.55;10.32;;;;;;;7.96;70.91;95627.00;5135230;28;20202;-69
2022/10/30 05:05:20;;;;;;;13.10;11.65;;;;;;;7.90;70.55;95640.06;5136206;27;20263;-69
2022/10/30 05:07:46;;;;;;;14.30;11.95;;;;;;;7.89;70.88;95645.88;5136533;27;20202;-69
2022/10/30 05:10:14;;;;;;;14.43;11.85;;;;;;;7.85;71.46;95642.97;5140203;27;20247;-69
2022/10/30 05:12:43;;;;;;;11.77;10.60;;;;;;;7.80;71.33;95651.34;5140410;27;20254;-68
2022/10/30 05:15:10;;;;;;;12.60;11.30;;;;;;;7.81;71.97;95649.44;5139449;27;20638;-68
2022/10/30 05:17:37;;;;;;;12.27;11.27;;;;;;;7.87;72.20;95648.13;5140282;27;20255;-67
2022/10/30 05:20:07;;;;;;;12.88;11.57;;;;;;;7.92;71.79;95656.22;5140220;27;20582;-67
2022/10/30 05:22:34;;;;;;;17.98;14.98;;;;;;;7.86;71.43;95647.31;5139362;27;20194;-67
2022/10/30 05:25:01;;;;;;;14.82;12.77;;;;;;;7.85;71.41;95651.22;5140202;27;20190;-69
2022/10/30 05:27:27;;;;;;;16.05;14.55;;;;;;;7.81;71.17;95654.94;5140203;27;20194;-67
2022/10/30 05:29:55;;;;;;;15.32;13.82;;;;;;;7.80;71.48;95654.09;5139168;27;20187;-67
2022/10/30 05:32:22;;;;;;;14.80;13.30;;;;;;;7.82;71.62;95660.09;5140113;27;20190;-67
2022/10/30 05:34:49;;;;;;;15.70;14.20;;;;;;;7.89;71.92;95660.41;5139836;27;20302;-67
2022/10/30 05:37:16;;;;;;;15.73;14.23;;;;;;;7.92;71.87;95657.03;5138973;27;20198;-67
2022/10/30 05:39:42;;;;;;;17.38;15.57;;;;;;;7.93;71.39;95658.66;5139733;27;20223;-67
2022/10/30 05:42:09;;;;;;;16.33;14.70;;;;;;;7.92;71.43;95650.75;5139281;27;20239;-68
2022/10/30 05:44:36;;;;;;;15.57;14.15;;;;;;;7.91;71.47;95652.66;5138550;27;20203;-67
2022/10/30 05:47:04;;;;;;;15.20;13.73;;;;;;;7.94;71.74;95651.22;5139490;27;20603;-68
2022/10/30 05:49:31;;;;;;;15.95;14.43;;;;;;;7.99;71.91;95645.56;5139836;27;20187;-68
2022/10/30 05:51:58;;;;;;;16.05;14.57;;;;;;;8.03;71.78;95652.03;5139732;27;20187;-69
2022/10/30 05:54:25;;;;;;;15.45;13.95;;;;;;;8.04;71.96;95652.84;5138762;27;20248;-68
2022/10/30 05:56:51;;;;;;;13.52;12.32;;;;;;;8.06;72.20;95653.31;5138714;27;20202;-69
2022/10/30 05:59:18;;;;;;;15.57;13.50;;;;;;;8.10;72.31;95655.13;5138935;27;20207;-67
2022/10/30 06:01:45;;;;;;;15.18;13.40;;;;;;;8.12;72.14;95643.78;5138955;27;20202;-68
2022/10/30 06:04:13;;;;;;;15.25;13.73;;;;;;;8.14;72.65;95652.53;5138506;27;20202;-68
2022/10/30 06:06:40;;;;;;;14.60;13.20;;;;;;;8.15;72.67;95652.19;5138327;27;20611;-68
2022/10/30 06:09:06;;;;;;;17.13;15.15;;;;;;;8.20;72.67;95645.72;5138593;27;20214;-67
2022/10/30 06:11:33;;;;;;;16.90;14.15;;;;;;;8.27;72.77;95654.28;5138744;27;20240;-68
2022/10/30 06:14:00;;;;;;;15.00;13.57;;;;;;;8.37;72.75;95653.16;5139333;27;20183;-68
2022/10/30 06:16:27;;;;;;;15.93;14.38;;;;;;;8.44;72.79;95653.50;5138318;27;20215;-68
2022/10/30 06:18:53;;;;;;;14.75;13.35;;;;;;;8.53;72.95;95648.78;5138476;27;20198;-68
2022/10/30 06:21:22;;;;;;;14.70;13.20;;;;;;;8.59;72.91;95642.00;5137991;27;20201;-68
2022/10/30 06:23:49;;;;;;;15.27;13.82;;;;;;;8.70;73.05;95650.72;5138235;27;20198;-68
2022/10/30 06:26:15;;;;;;;17.25;15.45;;;;;;;8.77;72.88;95653.78;5138134;27;20191;-68
2022/10/30 06:28:42;;;;;;;17.95;16.15;;;;;;;8.86;72.72;95646.31;5139048;27;20183;-67
2022/10/30 06:31:09;;;;;;;20.38;18.25;;;;;;;8.99;72.50;95650.00;5138653;27;20187;-68
2022/10/30 06:33:36;;;;;;;21.38;19.27;;;;;;;9.09;72.56;95654.34;5138016;27;20214;-68
2022/10/30 06:36:03;;;;;;;20.65;18.58;;;;;;;9.18;72.76;95646.84;5138499;27;20210;-68
2022/10/30 06:38:31;;;;;;;24.38;22.05;;;;;;;9.27;72.58;95650.38;5138458;27;20245;-68
2022/10/30 06:40:57;;;;;;;29.13;26.27;;;;;;;9.35;72.62;95652.28;5138414;27;20187;-69
2022/10/30 06:43:24;;;;;;;23.77;21.38;;;;;;;9.43;72.31;95660.84;5138535;27;20194;-70
2022/10/30 06:45:53;;;;;;;23.30;21.05;;;;;;;9.51;72.56;95654.47;5137897;27;20206;-70
2022/10/30 06:48:20;;;;;;;24.10;21.58;;;;;;;9.56;73.21;95649.59;5137835;27;20199;-70
2022/10/30 06:50:47;;;;;;;20.05;17.98;;;;;;;9.69;73.11;95663.44;5138572;27;20199;-69
2022/10/30 06:53:13;;;;;;;19.80;17.73;;;;;;;9.82;72.90;95665.16;5137829;27;20195;-70
2022/10/30 06:55:42;;;;;;;20.48;18.48;;;;;;;9.91;72.82;95676.13;5138530;27;20210;-70
2022/10/30 06:58:08;;;;;;;19.48;16.77;;;;;;;10.01;72.90;95662.75;5137308;27;20599;-70
2022/10/30 07:00:35;;;;;;;18.17;16.27;;;;;;;10.09;72.67;95658.31;5137665;27;20195;-70
2022/10/30 07:03:03;;;;;;;17.10;15.35;;;;;;;10.14;72.24;95663.66;5137219;27;20187;-70
2022/10/30 07:05:30;;;;;;;17.67;15.65;;;;;;;10.21;72.01;95660.38;5138135;27;20535;-70
2022/10/30 07:07:57;;;;;;;18.48;16.77;;;;;;;10.28;72.17;95667.00;5138403;27;20183;-70
2022/10/30 07:10:24;;;;;;;18.77;16.80;;;;;;;10.34;72.45;95662.06;5138200;27;20274;-70
2022/10/30 07:12:53;;;;;;;17.33;15.70;;;;;;;10.39;72.02;95667.38;5138049;27;20191;-70
2022/10/30 07:15:20;;;;;;;17.98;16.25;;;;;;;10.44;72.24;95658.91;5137576;27;20211;-70
2022/10/30 07:17:54;;;;;;;18.58;16.65;;;;;;;10.48;72.02;95656.28;5137140;27;20611;-70
2022/10/30 07:20:21;;;;;;;18.83;16.88;;;;;;;10.51;72.44;95644.56;5137893;27;20182;-70
2022/10/30 07:22:48;;;;;;;19.42;17.55;;;;;;;10.58;72.26;95642.88;5137960;27;20202;-70
2022/10/30 07:25:15;;;;;;;18.83;17.05;;;;;;;10.67;71.86;95650.25;5137631;27;20182;-70
2022/10/30 07:27:43;;;;;;;18.88;17.02;;;;;;;10.71;71.74;95645.66;5137042;27;20198;-70
2022/10/30 07:30:13;;;;;;;19.80;17.90;;;;;;;10.78;71.65;95641.22;5137435;27;20201;-70
2022/10/30 07:32:40;;;;;;;19.15;17.27;;;;;;;10.84;71.39;95639.06;5136808;27;20198;-70
2022/10/30 07:35:07;;;;;;;19.50;17.70;;;;;;;10.87;71.18;95643.09;5136644;27;20570;-70
2022/10/30 07:37:34;;;;;;;19.08;17.27;;;;;;;10.95;71.12;95639.44;5137264;27;20206;-70
2022/10/30 07:40:01;;;;;;;18.27;16.58;;;;;;;11.02;71.25;95634.94;5137060;27;20237;-70
2022/10/30 07:42:28;;;;;;;18.80;16.98;;;;;;;11.15;71.68;95641.31;5137272;27;20199;-70
2022/10/30 07:44:54;;;;;;;19.52;17.63;;;;;;;11.25;71.61;95634.53;5137386;27;20222;-70
2022/10/30 07:47:22;;;;;;;19.30;17.30;;;;;;;11.36;70.85;95635.69;5136466;27;20213;-70
2022/10/30 07:49:49;;;;;;;18.73;16.90;;;;;;;11.45;71.02;95635.59;5136629;27;20206;-70
2022/10/30 07:52:16;;;;;;;17.98;16.27;;;;;;;11.55;71.10;95624.88;5136611;27;20195;-70
2022/10/30 07:54:43;;;;;;;17.55;15.85;;;;;;;11.64;70.39;95635.81;5136361;27;20198;-71
2022/10/30 07:57:10;;;;;;;17.48;15.77;;;;;;;11.71;70.42;95622.22;5136455;27;20211;-70
2022/10/30 07:59:36;;;;;;;18.10;16.40;;;;;;;11.82;70.67;95625.31;5137557;27;20191;-70
2022/10/30 08:02:03;;;;;;;17.80;16.17;;;;;;;11.90;69.98;95615.31;5136294;27;20207;-70
2022/10/30 08:04:32;;;;;;;17.85;16.15;;;;;;;12.03;69.71;95609.44;5137080;27;20199;-70
2022/10/30 08:06:58;;;;;;;19.10;17.30;;;;;;;12.17;69.09;95599.97;5136982;27;20190;-70
2022/10/30 08:09:25;;;;;;;18.20;16.58;;;;;;;12.27;68.96;95602.19;5135720;27;20195;-70
2022/10/30 08:11:52;;;;;;;18.35;16.40;;;;;;;12.42;69.05;95604.25;5136062;27;20244;-70
2022/10/30 08:14:19;;;;;;;17.35;15.75;;;;;;;12.52;68.30;95594.63;5136064;27;20190;-71
2022/10/30 08:16:46;;;;;;;18.50;16.55;;;;;;;12.66;68.60;95596.97;5135722;27;20224;-71
2022/10/30 08:19:13;;;;;;;17.52;15.85;;;;;;;12.82;68.27;95599.78;5135864;27;20289;-71
2022/10/30 08:21:42;;;;;;;16.80;15.00;;;;;;;12.93;67.76;95590.63;5135958;27;20191;-71
2022/10/30 08:24:09;;;;;;;18.17;15.15;;;;;;;13.09;66.69;95593.41;5136728;27;20191;-71
2022/10/30 08:26:36;;;;;;;17.85;15.57;;;;;;;13.20;66.56;95591.69;5136741;27;20175;-71
2022/10/30 08:29:03;;;;;;;16.73;15.13;;;;;;;13.33;67.45;95592.47;5136388;27;20179;-71
2022/10/30 08:31:30;;;;;;;17.15;15.55;;;;;;;13.53;66.36;95592.53;5135803;27;20233;-71
2022/10/30 08:33:57;;;;;;;18.48;16.70;;;;;;;13.71;65.63;95591.78;5136007;27;20198;-71
2022/10/30 08:36:24;;;;;;;18.98;17.13;;;;;;;13.81;64.98;95595.19;5118075;27;20226;-71
2022/10/30 08:38:52;;;;;;;19.42;17.52;;;;;;;13.90;64.94;95588.25;5136446;27;20233;-71
2022/10/30 08:41:19;;;;;;;18.80;16.85;;;;;;;14.03;64.72;95599.25;5136111;27;20195;-71
2022/10/30 08:43:46;;;;;;;20.33;17.52;;;;;;;14.12;65.06;95589.53;5134865;27;20198;-71
2022/10/30 08:46:13;;;;;;;19.88;17.90;;;;;;;14.25;63.99;95587.44;5136558;27;20251;-70
2022/10/30 08:48:40;;;;;;;21.15;18.95;;;;;;;14.40;63.36;95594.88;5136321;27;20194;-72
2022/10/30 08:51:07;;;;;;;19.98;17.40;;;;;;;14.50;63.32;95592.75;5135393;27;20187;-72
2022/10/30 08:53:33;;;;;;;19.30;16.15;;;;;;;14.58;62.98;95589.72;5136738;27;20218;-73
2022/10/30 08:56:02;;;;;;;23.48;17.38;;;;;;;14.61;62.80;95582.66;5135363;27;20218;-72
2022/10/30 08:58:29;;;;;;;19.02;16.45;;;;;;;14.69;62.39;95582.41;5135453;27;20202;-73
2022/10/30 09:00:55;;;;;;;20.25;15.45;;;;;;;14.88;62.11;95583.56;5135000;28;20535;-72
2022/10/30 09:03:22;;;;;;;26.50;16.27;;;;;;;15.02;61.28;95575.47;5135492;28;20194;-72
2022/10/30 09:05:49;;;;;;;17.23;15.23;;;;;;;15.16;61.24;95567.41;5135264;28;20179;-71
2022/10/30 09:08:16;;;;;;;17.35;15.65;;;;;;;15.28;61.13;95582.28;5135443;28;20206;-72
2022/10/30 09:10:43;;;;;;;17.73;15.18;;;;;;;15.34;61.04;95569.69;5135176;28;20195;-72
2022/10/30 09:13:11;;;;;;;16.63;14.93;;;;;;;15.39;60.41;95564.59;5135126;28;20210;-72
2022/10/30 09:15:38;;;;;;;15.20;13.70;;;;;;;15.46;61.12;95561.16;5135760;27;20190;-73
2022/10/30 09:18:05;;;;;;;15.30;13.85;;;;;;;15.54;60.33;95562.06;5135187;28;20202;-73
2022/10/30 09:20:32;;;;;;;15.82;14.23;;;;;;;15.61;59.20;95562.19;5135093;28;20294;-73
2022/10/30 09:22:59;;;;;;;16.02;14.40;;;;;;;15.71;60.55;95561.56;5135765;27;20263;-72
2022/10/30 09:25:26;;;;;;;15.90;14.30;;;;;;;15.81;59.54;95557.34;5136064;27;20198;-73
2022/10/30 09:27:53;;;;;;;15.20;13.80;;;;;;;15.92;60.35;95555.53;5136075;27;20209;-73
2022/10/30 09:30:22;;;;;;;15.43;13.82;;;;;;;16.07;60.59;95557.34;5135061;28;20191;-73
2022/10/30 09:32:54;;;;;;;14.20;12.75;;;;;;;16.21;59.35;95555.94;5135572;27;20765;-71
2022/10/30 09:35:21;;;;;;;15.18;13.70;;;;;;;16.28;59.70;95550.47;5135991;27;20187;-71
2022/10/30 09:37:48;;;;;;;14.80;13.20;;;;;;;16.31;59.47;95550.50;5135741;27;20229;-71
2022/10/30 09:40:21;;;;;;;13.82;12.48;;;;;;;16.33;60.08;95541.75;5135917;27;20191;-71
2022/10/30 09:42:49;;;;;;;10.93;9.10;;;;;;;16.33;58.77;95537.00;5134854;28;20203;-72
2022/10/30 09:45:29;;;;;;;12.05;9.38;;;;;;;16.45;60.02;95532.34;5135477;28;20202;-72
2022/10/30 09:48:04;;;;;;;10.35;9.35;;;;;;;16.48;59.40;95528.81;5135752;28;20191;-70
2022/10/30 09:50:32;;;;;;;11.65;9.80;;;;;;;16.50;59.02;95521.69;5135759;28;20227;-70
2022/10/30 09:53:03;;;;;;;10.00;9.02;;;;;;;16.55;58.91;95526.13;5135688;28;20346;-70
2022/10/30 09:55:37;;;;;;;10.35;9.30;;;;;;;16.68;59.37;95519.09;5139438;27;20206;-70
2022/10/30 09:58:15;;;;;;;10.52;9.52;;;;;;;16.72;60.58;95511.59;5139417;27;20207;-70
2022/10/30 10:00:48;;;;;;;10.27;9.25;;;;;;;16.81;59.73;95511.31;5138170;27;20194;-70
2022/10/30 10:03:34;;;;;;;8.60;7.80;;;;;;;16.96;58.38;95506.69;5138702;27;20214;-70
2022/10/30 10:06:02;;;;;;;7.45;6.70;;;;;;;17.02;59.67;95499.56;5138219;27;20234;-70
2022/10/30 10:08:33;;;;;;;7.10;6.43;;;;;;;17.08;55.48;95503.63;5138463;27;20203;-70
2022/10/30 10:11:03;;;;;;;6.63;6.00;;;;;;;17.18;54.82;95488.97;5138375;27;20191;-70
2022/10/30 10:13:33;;;;;;;7.75;5.95;;;;;;;17.39;56.88;95484.75;5138914;27;20214;-70
2022/10/30 10:16:10;;;;;;;8.25;6.88;;;;;;;17.44;57.17;95484.41;5139146;27;20183;-70
2022/10/30 10:18:42;;;;;;;7.00;6.40;;;;;;;17.56;54.23;95470.94;5138238;27;20194;-70
2022/10/30 10:21:15;;;;;;;6.35;5.70;;;;;;;17.58;53.42;95478.94;5138855;27;20202;-70
2022/10/30 10:23:47;;;;;;;6.75;5.65;;;;;;;17.64;53.34;95468.97;5138049;27;20191;-70
2022/10/30 10:26:26;;;;;;;6.35;5.68;;;;;;;17.70;54.22;95475.00;5138217;27;20226;-70
2022/10/30 10:29:14;;;;;;;6.60;5.75;;;;;;;17.79;53.68;95459.56;5138917;27;20178;-70
2022/10/30 10:31:47;;;;;;;6.65;6.00;;;;;;;17.88;53.49;95461.19;5136346;27;20209;-71
2022/10/30 10:34:25;;;;;;;8.90;5.72;;;;;;;17.93;51.23;95449.66;5138900;27;20195;-69
2022/10/30 10:36:57;;;;;;;5.50;4.85;;;;;;;17.98;50.10;95450.09;5137835;27;20210;-69
2022/10/30 10:39:35;;;;;;;5.75;4.28;;;;;;;18.06;49.22;95445.34;5137335;27;20230;-69
2022/10/30 10:42:09;;;;;;;6.30;4.68;;;;;;;18.11;48.66;95441.34;5137456;27;20195;-69
2022/10/30 10:44:46;;;;;;;5.35;4.30;;;;;;;18.12;48.51;95434.56;5138391;27;20183;-70
2022/10/30 10:47:37;;;;;;;10.23;5.50;;;;;;;18.19;48.69;95426.22;5137609;27;20602;-70
2022/10/30 10:50:16;;;;;;;6.03;5.43;;;;;;;18.26;48.89;95432.66;5137671;27;20223;-69
2022/10/30 10:52:47;;;;;;;5.57;4.95;;;;;;;18.31;49.67;95433.47;5138064;27;20226;-70
2022/10/30 10:55:16;;;;;;;5.32;4.82;;;;;;;18.37;50.47;95429.06;5137961;27;20227;-69
2022/10/30 10:57:43;;;;;;;5.65;5.05;;;;;;;18.47;49.32;95420.72;5138226;27;20225;-71
2022/10/30 11:00:15;;;;;;;5.82;5.32;;;;;;;18.53;50.67;95418.38;5138347;27;20187;-71
2022/10/30 11:02:47;;;;;;;5.53;5.03;;;;;;;18.56;50.31;95417.56;5138012;27;20198;-71
2022/10/30 11:05:20;;;;;;;5.85;5.30;;;;;;;18.62;49.86;95410.38;5137663;27;20191;-71
2022/10/30 11:07:48;;;;;;;5.80;5.25;;;;;;;18.71;49.90;95410.03;5138164;27;20183;-71
2022/10/30 11:10:18;;;;;;;5.28;4.50;;;;;;;18.74;49.04;95404.47;5137284;27;20233;-71
2022/10/30 11:12:45;;;;;;;5.78;5.22;;;;;;;18.85;49.59;95403.69;5137719;27;20611;-71
2022/10/30 11:15:31;;;;;;;5.80;5.13;;;;;;;18.88;48.63;95395.28;5138014;27;20195;-72
2022/10/30 11:18:02;;;;;;;5.00;4.60;;;;;;;18.92;49.06;95389.72;5137211;27;20211;-71
2022/10/30 11:20:33;;;;;;;6.63;5.07;;;;;;;18.96;48.79;95387.72;5137650;27;20195;-71
2022/10/30 11:23:00;;;;;;;5.38;4.88;;;;;;;19.00;47.93;95380.91;5137997;27;20202;-71
2022/10/30 11:25:33;;;;;;;7.18;5.28;;;;;;;19.07;48.99;95382.91;5137272;27;20212;-71
2022/10/30 11:28:02;;;;;;;5.10;4.70;;;;;;;19.12;46.99;95379.69;5137746;27;20187;-71
2022/10/30 11:30:29;;;;;;;6.28;5.65;;;;;;;19.12;48.13;95379.69;5136625;27;20233;-72
2022/10/30 11:32:56;;;;;;;4.75;4.35;;;;;;;19.12;46.68;95368.50;5136727;27;20615;-71
2022/10/30 11:35:25;;;;;;;5.95;5.15;;;;;;;19.16;47.55;95372.09;5137876;27;20195;-71
2022/10/30 11:37:53;;;;;;;6.72;6.07;;;;;;;19.15;48.33;95364.91;5137300;27;20275;-71